createdAt,value
2022-08-28T00:00:16.704Z,59.40
2022-08-28T00:02:47.683Z,59.27
2022-08-28T00:05:19.456Z,59.01
2022-08-28T00:07:48.092Z,58.98
2022-08-28T00:10:19.858Z,58.98
2022-08-28T00:12:51.923Z,58.96
2022-08-28T00:15:24.861Z,58.94
2022-08-28T00:17:52.999Z,58.95
2022-08-28T00:20:21.638Z,59.07
2022-08-28T00:22:50.274Z,59.16
2022-08-28T00:25:22.404Z,59.30
2022-08-28T00:27:52.902Z,59.51
2022-08-28T00:30:27.805Z,59.66
2022-08-28T00:32:59.484Z,59.85
2022-08-28T00:35:27.947Z,60.02
2022-08-28T00:37:57.046Z,60.12
2022-08-28T00:40:32.477Z,60.24
2022-08-28T00:43:00.482Z,60.47
2022-08-28T00:45:29.514Z,60.59
2022-08-28T00:47:57.921Z,60.90
2022-08-28T00:50:32.435Z,61.06
2022-08-28T00:53:01.240Z,61.30
2022-08-28T00:55:29.952Z,61.36
2022-08-28T00:58:00.292Z,61.50
2022-08-28T01:00:35.563Z,61.55
2022-08-28T01:03:05.198Z,61.57
2022-08-28T01:05:35.696Z,61.60
2022-08-28T01:08:03.893Z,61.62
2022-08-28T01:10:34.431Z,61.64
2022-08-28T01:13:03.614Z,61.63
2022-08-28T01:15:37.668Z,61.66
2022-08-28T01:18:10.035Z,61.63
2022-08-28T01:20:43.120Z,61.62
2022-08-28T01:23:46.270Z,61.68
2022-08-28T01:26:14.012Z,62.20
2022-08-28T01:28:41.814Z,61.85
2022-08-28T01:31:12.934Z,61.99
2022-08-28T01:33:42.813Z,62.12
2022-08-28T01:36:12.199Z,62.29
2022-08-28T01:38:41.754Z,62.46
2022-08-28T01:41:11.028Z,62.60
2022-08-28T01:43:41.007Z,62.58
2022-08-28T01:46:11.151Z,62.56
2022-08-28T01:48:43.105Z,62.45
2022-08-28T01:51:11.942Z,62.31
2022-08-28T01:53:41.085Z,61.92
2022-08-28T01:56:13.615Z,61.64
2022-08-28T01:58:41.702Z,61.48
2022-08-28T02:01:13.310Z,61.39
2022-08-28T02:03:44.759Z,61.24
2022-08-28T02:06:21.687Z,61.11
2022-08-28T02:08:54.995Z,61.06
2022-08-28T02:11:24.818Z,60.93
2022-08-28T02:13:54.238Z,61.02
2022-08-28T02:16:26.865Z,61.04
2022-08-28T02:19:03.327Z,60.99
2022-08-28T02:21:31.145Z,60.99
2022-08-28T02:23:59.112Z,61.01
2022-08-28T02:26:27.943Z,61.00
2022-08-28T02:28:55.767Z,60.95
2022-08-28T02:31:23.625Z,60.88
2022-08-28T02:33:51.245Z,60.91
2022-08-28T02:36:19.101Z,60.94
2022-08-28T02:38:48.516Z,61.03
2022-08-28T02:41:16.908Z,61.04
2022-08-28T02:43:44.946Z,61.08
2022-08-28T02:46:13.065Z,61.22
2022-08-28T02:48:41.142Z,61.29
2022-08-28T02:51:13.185Z,61.44
2022-08-28T02:53:42.165Z,61.39
2022-08-28T02:56:11.621Z,61.38
2022-08-28T02:58:40.242Z,61.46
2022-08-28T03:01:10.749Z,61.51
2022-08-28T03:03:41.425Z,61.55
2022-08-28T03:06:14.489Z,61.54
2022-08-28T03:08:43.252Z,61.59
2022-08-28T03:11:12.088Z,61.77
2022-08-28T03:13:39.756Z,62.06
2022-08-28T03:16:07.920Z,62.26
2022-08-28T03:18:35.574Z,62.45
2022-08-28T03:21:04.191Z,62.60
2022-08-28T03:23:32.341Z,62.90
2022-08-28T03:26:05.015Z,62.68
2022-08-28T03:28:41.491Z,62.46
2022-08-28T03:31:13.472Z,62.26
2022-08-28T03:33:42.750Z,62.10
2022-08-28T03:36:14.333Z,62.03
2022-08-28T03:38:42.117Z,62.01
2022-08-28T03:41:12.601Z,61.94
2022-08-28T03:43:40.669Z,61.84
2022-08-28T03:46:15.177Z,61.89
2022-08-28T03:48:44.922Z,61.83
2022-08-28T03:51:17.756Z,61.81
2022-08-28T03:53:47.005Z,61.84
2022-08-28T03:56:21.174Z,61.87
2022-08-28T03:58:51.926Z,61.91
2022-08-28T04:01:20.985Z,61.97
2022-08-28T04:03:48.857Z,62.09
2022-08-28T04:06:16.686Z,62.17
2022-08-28T04:08:44.713Z,62.31
2022-08-28T04:11:12.779Z,62.48
2022-08-28T04:13:41.430Z,62.72
2022-08-28T04:16:13.388Z,62.92
2022-08-28T04:18:42.734Z,63.08
2022-08-28T04:21:15.792Z,63.14
2022-08-28T04:23:45.614Z,63.23
2022-08-28T04:26:18.083Z,63.23
2022-08-28T04:28:46.868Z,63.15
2022-08-28T04:31:15.461Z,63.04
2022-08-28T04:33:43.688Z,63.09
2022-08-28T04:36:16.214Z,62.99
2022-08-28T04:38:44.269Z,63.14
2022-08-28T04:41:15.305Z,63.36
2022-08-28T04:43:43.989Z,63.54
2022-08-28T04:46:14.601Z,63.61
2022-08-28T04:48:42.905Z,63.72
2022-08-28T04:51:14.540Z,63.76
2022-08-28T04:53:44.373Z,63.72
2022-08-28T04:56:14.266Z,63.60
2022-08-28T04:58:43.377Z,63.32
2022-08-28T05:01:18.269Z,63.08
2022-08-28T05:03:47.800Z,62.87
2022-08-28T05:06:16.640Z,62.55
2022-08-28T05:08:44.375Z,62.37
2022-08-28T05:11:21.281Z,62.27
2022-08-28T05:13:46.168Z,62.06
2022-08-28T05:16:14.388Z,62.08
2022-08-28T05:18:42.726Z,62.12
2022-08-28T05:21:19.154Z,62.03
2022-08-28T05:23:54.081Z,61.94
2022-08-28T05:26:22.847Z,61.83
2022-08-28T05:28:54.962Z,61.78
2022-08-28T05:31:24.671Z,61.79
2022-08-28T05:33:53.224Z,61.79
2022-08-28T05:36:23.414Z,61.83
2022-08-28T05:38:56.696Z,61.75
2022-08-28T05:41:29.651Z,61.67
2022-08-28T05:44:01.412Z,61.71
2022-08-28T05:46:29.859Z,61.74
2022-08-28T05:48:59.722Z,61.38
2022-08-28T05:51:28.349Z,61.24
2022-08-28T05:53:57.195Z,61.15
2022-08-28T05:56:29.174Z,61.06
2022-08-28T05:58:59.267Z,60.75
2022-08-28T06:01:34.437Z,60.55
2022-08-28T06:04:10.583Z,60.61
2022-08-28T06:06:40.598Z,60.83
2022-08-28T06:09:16.359Z,60.63
2022-08-28T06:11:46.105Z,60.48
2022-08-28T06:14:18.104Z,60.57
2022-08-28T06:16:54.689Z,60.67
2022-08-28T06:19:25.266Z,60.58
2022-08-28T06:21:59.218Z,60.24
2022-08-28T06:24:28.788Z,60.22
2022-08-28T06:26:58.674Z,60.20
2022-08-28T06:29:28.672Z,59.71
2022-08-28T06:32:01.366Z,59.86
2022-08-28T06:34:29.572Z,59.78
2022-08-28T06:36:57.309Z,59.71
2022-08-28T06:39:25.214Z,59.83
2022-08-28T06:41:53.319Z,59.73
2022-08-28T06:44:22.273Z,59.36
2022-08-28T06:46:53.207Z,59.01
2022-08-28T06:49:21.346Z,58.88
2022-08-28T06:51:49.268Z,58.73
2022-08-28T06:54:21.772Z,58.50
2022-08-28T06:56:46.701Z,57.86
2022-08-28T06:59:14.629Z,57.31
2022-08-28T07:01:42.247Z,57.39
2022-08-28T07:04:13.902Z,57.18
2022-08-28T07:06:53.020Z,56.92
2022-08-28T07:09:18.403Z,56.54
2022-08-28T07:11:46.310Z,56.00
2022-08-28T07:14:13.941Z,55.69
2022-08-28T07:16:41.545Z,55.14
2022-08-28T07:19:11.722Z,54.35
2022-08-28T07:21:43.446Z,53.85
2022-08-28T07:24:14.091Z,53.93
2022-08-28T07:26:43.108Z,53.82
2022-08-28T07:29:11.772Z,53.62
2022-08-28T07:31:48.659Z,53.23
2022-08-28T07:34:19.552Z,52.71
2022-08-28T07:36:47.551Z,52.31
2022-08-28T07:39:15.813Z,51.71
2022-08-28T07:41:46.018Z,51.76
2022-08-28T07:44:33.690Z,51.83
2022-08-28T07:47:05.264Z,51.40
2022-08-28T07:49:34.796Z,51.13
2022-08-28T07:52:03.180Z,51.04
2022-08-28T07:54:31.248Z,51.13
2022-08-28T07:56:59.175Z,51.27
2022-08-28T07:59:29.568Z,50.74
2022-08-28T08:01:56.501Z,50.73
2022-08-28T08:04:25.460Z,50.86
2022-08-28T08:06:57.866Z,49.62
2022-08-28T08:09:23.258Z,49.29
2022-08-28T08:11:51.872Z,49.41
2022-08-28T08:14:19.576Z,49.62
2022-08-28T08:16:47.818Z,50.29
2022-08-28T08:19:16.926Z,50.39
2022-08-28T08:21:53.308Z,50.26
2022-08-28T08:24:24.470Z,50.08
2022-08-28T08:26:59.478Z,49.52
2022-08-28T08:29:25.179Z,49.79
2022-08-28T08:32:06.570Z,49.61
2022-08-28T08:34:40.843Z,49.15
2022-08-28T08:37:09.974Z,49.53
2022-08-28T08:39:37.862Z,48.77
2022-08-28T08:42:10.880Z,49.27
2022-08-28T08:44:46.437Z,49.22
2022-08-28T08:47:22.224Z,48.90
2022-08-28T08:49:57.535Z,48.65
2022-08-28T08:52:53.634Z,47.90
2022-08-28T08:55:33.779Z,47.85
2022-08-28T08:58:13.307Z,47.80
2022-08-28T09:00:58.721Z,47.92
2022-08-28T09:03:48.512Z,48.14
2022-08-28T09:06:31.074Z,47.62
2022-08-28T09:09:06.907Z,46.83
2022-08-28T09:11:50.544Z,46.87
2022-08-28T09:15:00.021Z,46.42
2022-08-28T09:17:32.852Z,46.33
2022-08-28T09:20:00.518Z,45.93
2022-08-28T09:22:28.408Z,45.80
2022-08-28T09:24:56.115Z,45.57
2022-08-28T09:27:34.446Z,45.62
2022-08-28T09:30:10.267Z,44.96
2022-08-28T09:32:43.869Z,44.65
2022-08-28T09:35:27.796Z,44.50
2022-08-28T09:38:27.872Z,44.60
2022-08-28T09:41:29.638Z,43.71
2022-08-28T09:43:57.488Z,42.94
2022-08-28T09:46:31.233Z,43.08
2022-08-28T09:49:12.806Z,42.79
2022-08-28T09:51:41.288Z,42.55
2022-08-28T09:54:19.803Z,42.76
2022-08-28T09:56:49.426Z,42.24
2022-08-28T09:59:20.680Z,41.77
2022-08-28T10:02:12.713Z,41.49
2022-08-28T10:04:54.442Z,40.48
2022-08-28T10:07:37.191Z,39.86
2022-08-28T10:10:32.207Z,40.25
2022-08-28T10:13:14.171Z,39.77
2022-08-28T10:16:13.944Z,38.50
2022-08-28T10:19:08.758Z,37.79
2022-08-28T10:21:50.735Z,37.87
2022-08-28T10:24:41.072Z,38.20
2022-08-28T10:27:33.633Z,38.23
2022-08-28T10:30:13.396Z,37.93
2022-08-28T10:33:14.538Z,35.60
2022-08-28T10:35:52.950Z,36.48
2022-08-28T10:38:51.190Z,36.32
2022-08-28T10:41:30.872Z,36.48
2022-08-28T10:44:01.941Z,36.05
2022-08-28T10:46:41.082Z,36.41
2022-08-28T10:49:14.235Z,36.14
2022-08-28T10:51:52.802Z,36.35
2022-08-28T10:54:33.257Z,35.93
2022-08-28T10:57:35.006Z,35.37
2022-08-28T11:00:11.822Z,33.40
2022-08-28T11:02:44.789Z,33.91
2022-08-28T11:05:13.079Z,34.37
2022-08-28T11:07:46.169Z,33.78
2022-08-28T11:10:37.881Z,33.39
2022-08-28T11:13:09.801Z,32.34
2022-08-28T11:15:45.586Z,32.40
2022-08-28T11:18:44.803Z,31.97
2022-08-28T11:21:39.189Z,31.71
2022-08-28T11:24:33.133Z,31.95
2022-08-28T11:27:28.977Z,31.98
2022-08-28T11:30:11.260Z,32.04
2022-08-28T11:32:53.318Z,31.47
2022-08-28T11:35:32.361Z,30.96
2022-08-28T11:37:59.834Z,31.04
2022-08-28T11:40:37.927Z,30.79
2022-08-28T11:43:20.416Z,31.35
2022-08-28T11:45:59.754Z,31.48
2022-08-28T11:48:42.838Z,31.77
2022-08-28T11:51:38.358Z,30.61
2022-08-28T11:54:29.472Z,30.79
2022-08-28T11:57:25.817Z,32.21
2022-08-28T12:00:01.943Z,30.00
2022-08-28T12:02:48.419Z,30.75
2022-08-28T12:05:33.516Z,31.12
2022-08-28T12:08:03.961Z,31.46
2022-08-28T12:10:41.649Z,31.00
2022-08-28T12:13:09.689Z,29.91
2022-08-28T12:15:40.965Z,29.65
2022-08-28T12:18:17.233Z,30.12
2022-08-28T12:21:01.018Z,30.89
2022-08-28T12:24:05.373Z,30.69
2022-08-28T12:26:41.221Z,31.38
2022-08-28T12:29:29.413Z,31.92
2022-08-28T12:32:28.022Z,31.25
2022-08-28T12:35:04.292Z,30.86
2022-08-28T12:37:58.578Z,30.96
2022-08-28T12:40:44.957Z,31.01
2022-08-28T12:43:16.905Z,30.90
2022-08-28T12:45:57.640Z,30.88
2022-08-28T12:48:33.062Z,30.91
2022-08-28T12:51:08.769Z,30.54
2022-08-28T12:53:43.902Z,29.32
2022-08-28T12:56:15.531Z,29.50
2022-08-28T12:58:44.829Z,28.94
2022-08-28T13:01:31.952Z,29.16
2022-08-28T13:04:08.213Z,29.75
2022-08-28T13:06:39.108Z,29.75
2022-08-28T13:09:19.946Z,29.62
2022-08-28T13:11:50.987Z,30.06
2022-08-28T13:14:41.856Z,30.03
2022-08-28T13:17:12.224Z,30.05
2022-08-28T13:19:42.073Z,29.97
2022-08-28T13:22:40.475Z,30.44
2022-08-28T13:25:09.290Z,29.50
2022-08-28T13:27:38.494Z,29.80
2022-08-28T13:30:20.090Z,29.10
2022-08-28T13:33:04.674Z,28.72
2022-08-28T13:35:39.453Z,29.19
2022-08-28T13:38:11.873Z,28.46
2022-08-28T13:40:58.071Z,27.92
2022-08-28T13:43:26.703Z,26.93
2022-08-28T13:45:54.845Z,26.90
2022-08-28T13:48:26.692Z,27.94
2022-08-28T13:51:03.120Z,28.32
2022-08-28T13:53:32.523Z,28.51
2022-08-28T13:56:00.905Z,27.70
2022-08-28T13:58:28.501Z,27.80
2022-08-28T14:00:56.243Z,27.37
2022-08-28T14:03:37.257Z,27.34
2022-08-28T14:06:13.683Z,27.24
2022-08-28T14:08:43.137Z,27.22
2022-08-28T14:11:13.804Z,27.73
2022-08-28T14:13:47.719Z,28.02
2022-08-28T14:16:14.963Z,28.04
2022-08-28T14:18:42.805Z,28.04
2022-08-28T14:21:10.507Z,28.18
2022-08-28T14:23:38.162Z,28.21
2022-08-28T14:26:06.115Z,28.35
2022-08-28T14:28:36.237Z,28.78
2022-08-28T14:31:09.921Z,28.53
2022-08-28T14:33:37.018Z,27.72
2022-08-28T14:36:05.378Z,26.82
2022-08-28T14:38:33.028Z,27.71
2022-08-28T14:41:01.674Z,28.26
2022-08-28T14:43:31.112Z,27.75
2022-08-28T14:45:59.887Z,28.01
2022-08-28T14:48:27.667Z,28.06
2022-08-28T14:50:55.335Z,28.54
2022-08-28T14:53:22.951Z,28.12
2022-08-28T14:55:50.888Z,28.63
2022-08-28T14:58:19.936Z,28.98
2022-08-28T15:00:50.084Z,28.67
2022-08-28T15:03:19.298Z,28.58
2022-08-28T15:05:46.989Z,28.47
2022-08-28T15:08:17.406Z,28.23
2022-08-28T15:10:45.504Z,28.67
2022-08-28T15:13:13.470Z,28.88
2022-08-28T15:15:42.640Z,29.25
2022-08-28T15:18:11.772Z,29.16
2022-08-28T15:20:44.301Z,28.75
2022-08-28T15:23:14.544Z,27.96
2022-08-28T15:25:42.729Z,28.25
2022-08-28T15:28:11.092Z,28.50
2022-08-28T15:30:39.305Z,28.29
2022-08-28T15:33:08.735Z,28.25
2022-08-28T15:35:36.799Z,28.86
2022-08-28T15:38:05.517Z,29.96
2022-08-28T15:40:52.319Z,30.11
2022-08-28T15:43:19.975Z,29.89
2022-08-28T15:45:47.789Z,30.09
2022-08-28T15:48:15.505Z,29.25
2022-08-28T15:50:43.368Z,29.82
2022-08-28T15:53:12.084Z,30.27
2022-08-28T15:55:40.057Z,30.22
2022-08-28T15:58:14.237Z,30.11
2022-08-28T16:00:38.841Z,30.02
2022-08-28T16:03:06.750Z,30.68
2022-08-28T16:05:36.137Z,30.71
2022-08-28T16:08:05.698Z,30.25
2022-08-28T16:10:33.446Z,30.40
2022-08-28T16:13:02.916Z,31.11
2022-08-28T16:15:30.813Z,31.11
2022-08-28T16:17:58.658Z,31.00
2022-08-28T16:20:26.123Z,31.01
2022-08-28T16:22:53.973Z,31.24
2022-08-28T16:25:21.761Z,31.36
2022-08-28T16:27:49.342Z,32.90
2022-08-28T16:30:18.566Z,34.06
2022-08-28T16:32:47.684Z,34.71
2022-08-28T16:35:16.202Z,35.21
2022-08-28T16:37:44.324Z,35.81
2022-08-28T16:40:14.751Z,36.20
2022-08-28T16:42:43.354Z,35.74
2022-08-28T16:45:12.982Z,35.96
2022-08-28T16:47:40.688Z,36.64
2022-08-28T16:50:11.998Z,37.56
2022-08-28T16:52:39.947Z,38.66
2022-08-28T16:55:09.990Z,39.37
2022-08-28T16:57:37.963Z,39.90
2022-08-28T17:00:12.102Z,40.63
2022-08-28T17:02:42.272Z,40.91
2022-08-28T17:05:13.638Z,41.47
2022-08-28T17:07:41.324Z,42.23
2022-08-28T17:10:11.877Z,42.59
2022-08-28T17:12:40.905Z,42.68
2022-08-28T17:15:09.988Z,43.16
2022-08-28T17:17:40.414Z,43.57
2022-08-28T17:20:12.132Z,44.03
2022-08-28T17:22:40.911Z,44.42
2022-08-28T17:25:12.669Z,44.72
2022-08-28T17:27:41.767Z,45.32
2022-08-28T17:30:11.562Z,45.75
2022-08-28T17:32:40.222Z,46.11
2022-08-28T17:35:08.648Z,46.82
2022-08-28T17:37:40.240Z,47.37
2022-08-28T17:40:12.663Z,47.68
2022-08-28T17:42:41.181Z,47.80
2022-08-28T17:45:09.636Z,48.02
2022-08-28T17:47:37.331Z,48.45
2022-08-28T17:50:05.751Z,48.70
2022-08-28T17:52:33.798Z,48.88
2022-08-28T17:55:02.389Z,48.90
2022-08-28T17:57:30.545Z,48.98
2022-08-28T18:00:00.379Z,48.88
2022-08-28T18:02:28.709Z,48.78
2022-08-28T18:04:56.587Z,49.04
2022-08-28T18:07:24.374Z,49.40
2022-08-28T18:09:52.101Z,49.55
2022-08-28T18:12:19.830Z,49.67
2022-08-28T18:14:47.681Z,49.67
2022-08-28T18:17:15.954Z,49.78
2022-08-28T18:19:43.809Z,49.95
2022-08-28T18:22:13.122Z,50.00
2022-08-28T18:24:41.362Z,50.15
2022-08-28T18:27:09.132Z,50.32
2022-08-28T18:29:39.041Z,50.56
2022-08-28T18:32:07.398Z,50.80
2022-08-28T18:34:36.350Z,50.94
2022-08-28T18:37:04.565Z,51.10
2022-08-28T18:39:34.577Z,51.38
2022-08-28T18:42:02.835Z,51.56
2022-08-28T18:44:31.798Z,51.65
2022-08-28T18:46:59.630Z,51.81
2022-08-28T18:49:28.084Z,51.93
2022-08-28T18:51:56.409Z,51.89
2022-08-28T18:54:24.084Z,52.03
2022-08-28T18:56:57.418Z,51.99
2022-08-28T18:59:24.003Z,51.93
2022-08-28T19:01:51.830Z,51.99
2022-08-28T19:04:19.594Z,52.09
2022-08-28T19:06:47.216Z,52.20
2022-08-28T19:09:19.294Z,52.36
2022-08-28T19:11:45.119Z,52.42
2022-08-28T19:14:12.996Z,52.48
2022-08-28T19:16:40.751Z,52.59
2022-08-28T19:19:09.009Z,52.59
2022-08-28T19:21:38.083Z,52.64
2022-08-28T19:24:05.927Z,52.76
2022-08-28T19:26:33.605Z,52.84
2022-08-28T19:29:02.502Z,52.81
2022-08-28T19:31:30.209Z,52.97
2022-08-28T19:33:57.991Z,53.20
2022-08-28T19:36:27.192Z,53.47
2022-08-28T19:38:55.126Z,53.65
2022-08-28T19:41:23.711Z,53.64
2022-08-28T19:43:51.418Z,53.66
2022-08-28T19:46:20.634Z,53.75
2022-08-28T19:48:51.223Z,53.79
2022-08-28T19:51:23.362Z,53.81
2022-08-28T19:53:57.885Z,53.84
2022-08-28T19:56:25.458Z,53.90
2022-08-28T19:58:56.147Z,53.97
2022-08-28T20:01:24.012Z,54.00
2022-08-28T20:03:51.992Z,54.11
2022-08-28T20:06:19.510Z,54.19
2022-08-28T20:08:47.288Z,54.37
2022-08-28T20:11:20.948Z,54.43
2022-08-28T20:13:48.645Z,54.47
2022-08-28T20:16:16.645Z,54.51
2022-08-28T20:18:44.921Z,54.65
2022-08-28T20:21:13.879Z,54.79
2022-08-28T20:23:41.701Z,54.88
2022-08-28T20:26:10.154Z,54.89
2022-08-28T20:28:38.300Z,55.11
2022-08-28T20:31:17.529Z,55.24
2022-08-28T20:33:47.932Z,55.25
2022-08-28T20:36:21.167Z,55.29
2022-08-28T20:38:48.612Z,55.25
2022-08-28T20:41:19.769Z,55.29
2022-08-28T20:43:48.009Z,55.37
2022-08-28T20:46:16.709Z,55.45
2022-08-28T20:48:44.809Z,55.41
2022-08-28T20:51:12.438Z,55.45
2022-08-28T20:53:40.024Z,55.51
2022-08-28T20:56:10.113Z,55.55
2022-08-28T20:58:38.070Z,55.57
2022-08-28T21:01:06.081Z,55.64
2022-08-28T21:03:33.935Z,55.69
2022-08-28T21:06:01.557Z,55.70
2022-08-28T21:08:29.150Z,55.75
2022-08-28T21:10:58.367Z,55.76
2022-08-28T21:13:26.235Z,55.80
2022-08-28T21:15:54.066Z,55.82
2022-08-28T21:18:21.935Z,55.89
2022-08-28T21:20:51.548Z,55.88
2022-08-28T21:23:19.360Z,56.03
2022-08-28T21:25:47.889Z,56.06
2022-08-28T21:28:15.726Z,56.18
2022-08-28T21:30:43.627Z,56.31
2022-08-28T21:33:11.635Z,56.36
2022-08-28T21:35:42.443Z,56.45
2022-08-28T21:38:10.298Z,56.47
2022-08-28T21:40:40.789Z,56.49
2022-08-28T21:43:08.787Z,56.61
2022-08-28T21:45:36.413Z,56.67
2022-08-28T21:48:04.301Z,56.72
2022-08-28T21:50:32.015Z,56.78
2022-08-28T21:52:59.681Z,56.87
2022-08-28T21:55:27.665Z,57.07
2022-08-28T21:57:55.427Z,57.09
2022-08-28T22:00:23.879Z,57.19
2022-08-28T22:02:52.098Z,57.24
2022-08-28T22:05:20.212Z,57.31
2022-08-28T22:07:47.858Z,57.42
2022-08-28T22:10:15.199Z,57.44
2022-08-28T22:12:43.091Z,57.52
2022-08-28T22:15:10.797Z,57.58
2022-08-28T22:17:40.255Z,57.62
2022-08-28T22:20:09.205Z,57.65
2022-08-28T22:22:55.129Z,57.67
2022-08-28T22:25:23.093Z,57.69
2022-08-28T22:27:50.713Z,57.80
2022-08-28T22:30:19.440Z,57.91
2022-08-28T22:32:47.340Z,58.02
2022-08-28T22:35:14.927Z,58.06
2022-08-28T22:37:42.886Z,58.24
2022-08-28T22:40:13.469Z,58.52
2022-08-28T22:42:42.148Z,58.67
2022-08-28T22:45:10.833Z,58.81
2022-08-28T22:47:39.163Z,59.07
2022-08-28T22:50:08.063Z,59.22
2022-08-28T22:52:36.697Z,59.39
2022-08-28T22:55:12.475Z,59.52
2022-08-28T22:57:40.305Z,59.46
2022-08-28T23:00:16.153Z,59.45
2022-08-28T23:02:44.270Z,59.47
2022-08-28T23:05:12.666Z,59.42
2022-08-28T23:07:40.831Z,59.45
2022-08-28T23:10:10.329Z,59.44
2022-08-28T23:12:38.192Z,59.58
2022-08-28T23:15:13.394Z,59.76
2022-08-28T23:17:42.889Z,59.79
2022-08-28T23:20:14.131Z,59.98
2022-08-28T23:22:41.792Z,59.85
2022-08-28T23:25:15.081Z,59.87
2022-08-28T23:27:44.659Z,59.73
2022-08-28T23:30:15.765Z,59.65
2022-08-28T23:32:43.707Z,59.56
2022-08-28T23:35:13.903Z,59.43
2022-08-28T23:37:43.680Z,59.34
2022-08-28T23:40:16.574Z,59.27
2022-08-28T23:42:45.746Z,59.29
2022-08-28T23:45:17.784Z,59.34
2022-08-28T23:47:46.375Z,59.37
2022-08-28T23:50:19.038Z,59.47
2022-08-28T23:52:48.329Z,59.63
2022-08-28T23:55:18.587Z,59.75
2022-08-28T23:57:46.346Z,59.83
